createdAt,value
2018-08-22T00:01:12.009Z,23.57
2018-08-22T00:03:38.317Z,23.56
2018-08-22T00:06:04.637Z,23.61
2018-08-22T00:08:30.956Z,23.64
2018-08-22T00:10:57.271Z,23.58
2018-08-22T00:13:23.588Z,23.47
2018-08-22T00:15:49.893Z,23.41
2018-08-22T00:18:16.216Z,23.36
2018-08-22T00:20:42.534Z,23.42
2018-08-22T00:23:08.885Z,23.41
2018-08-22T00:25:35.197Z,23.41
2018-08-22T00:28:01.542Z,23.26
2018-08-22T00:30:27.891Z,23.24
2018-08-22T00:32:54.245Z,23.24
2018-08-22T00:35:23.337Z,23.23
2018-08-22T00:37:49.667Z,23.16
2018-08-22T00:40:16.060Z,23.07
2018-08-22T00:42:42.354Z,23.05
2018-08-22T00:45:08.697Z,22.99
2018-08-22T00:47:35.034Z,22.90
2018-08-22T00:50:01.411Z,22.97
2018-08-22T00:52:27.741Z,22.94
2018-08-22T00:54:54.066Z,22.96
2018-08-22T00:57:20.414Z,22.92
2018-08-22T00:59:46.789Z,22.78
2018-08-22T01:02:13.139Z,22.73
2018-08-22T01:04:39.491Z,22.58
2018-08-22T01:07:05.817Z,22.55
2018-08-22T01:09:32.198Z,22.49
2018-08-22T01:11:58.506Z,22.46
2018-08-22T01:14:24.847Z,22.47
2018-08-22T01:16:51.202Z,22.50
2018-08-22T01:19:17.528Z,22.52
2018-08-22T01:21:43.895Z,22.63
2018-08-22T01:24:10.250Z,22.76
2018-08-22T01:26:36.583Z,22.60
2018-08-22T01:29:02.938Z,22.48
2018-08-22T01:31:29.271Z,22.37
2018-08-22T01:33:55.614Z,22.23
2018-08-22T01:36:21.983Z,22.28
2018-08-22T01:38:48.308Z,22.29
2018-08-22T01:41:14.627Z,22.29
2018-08-22T01:43:41.003Z,22.26
2018-08-22T01:46:07.312Z,22.22
2018-08-22T01:48:33.633Z,22.17
2018-08-22T01:50:59.988Z,22.24
2018-08-22T01:53:26.300Z,22.25
2018-08-22T01:55:52.623Z,22.29
2018-08-22T01:58:18.949Z,22.39
2018-08-22T02:00:45.281Z,22.41
2018-08-22T02:03:11.611Z,22.26
2018-08-22T02:05:37.932Z,22.19
2018-08-22T02:08:04.286Z,22.15
2018-08-22T02:10:30.644Z,22.11
2018-08-22T02:12:56.980Z,22.10
2018-08-22T02:15:23.310Z,22.17
2018-08-22T02:17:49.695Z,22.19
2018-08-22T02:20:15.951Z,22.09
2018-08-22T02:22:42.269Z,22.09
2018-08-22T02:25:08.617Z,22.06
2018-08-22T02:27:34.906Z,22.10
2018-08-22T02:32:46.664Z,22.05
2018-08-22T02:35:12.984Z,21.96
2018-08-22T02:37:39.347Z,22.01
2018-08-22T02:40:05.680Z,21.99
2018-08-22T02:42:32.033Z,22.02
2018-08-22T02:44:58.401Z,21.89
2018-08-22T02:47:24.734Z,21.68
2018-08-22T02:49:51.055Z,21.60
2018-08-22T02:52:17.380Z,21.69
2018-08-22T02:54:43.724Z,21.78
2018-08-22T02:57:10.038Z,21.82
2018-08-22T02:59:36.389Z,21.87
2018-08-22T03:02:02.703Z,21.88
2018-08-22T03:04:29.052Z,21.86
2018-08-22T03:06:55.369Z,21.78
2018-08-22T03:09:21.689Z,21.76
2018-08-22T03:11:48.003Z,21.81
2018-08-22T03:14:14.367Z,21.79
2018-08-22T03:16:40.655Z,21.73
2018-08-22T03:19:06.974Z,21.66
2018-08-22T03:21:33.299Z,21.57
2018-08-22T03:23:59.634Z,21.55
2018-08-22T03:26:25.950Z,21.52
2018-08-22T03:28:52.265Z,21.53
2018-08-22T03:31:18.585Z,21.39
2018-08-22T03:33:44.905Z,21.29
2018-08-22T03:36:11.218Z,21.32
2018-08-22T03:38:37.553Z,21.42
2018-08-22T03:41:03.869Z,21.48
2018-08-22T03:43:30.177Z,21.37
2018-08-22T03:45:56.495Z,21.30
2018-08-22T03:48:22.816Z,21.37
2018-08-22T03:50:49.206Z,21.44
2018-08-22T03:53:15.556Z,21.45
2018-08-22T03:55:41.888Z,21.31
2018-08-22T03:58:08.213Z,21.19
2018-08-22T04:00:34.532Z,21.24
2018-08-22T04:03:00.843Z,21.17
2018-08-22T04:05:27.158Z,21.14
2018-08-22T04:07:53.482Z,21.16
2018-08-22T04:10:19.805Z,21.17
2018-08-22T04:12:46.145Z,21.22
2018-08-22T04:15:12.458Z,21.29
2018-08-22T04:17:38.768Z,21.24
2018-08-22T04:20:05.072Z,21.30
2018-08-22T04:22:31.389Z,21.33
2018-08-22T04:24:57.723Z,21.32
2018-08-22T04:27:24.040Z,21.28
2018-08-22T04:29:50.352Z,21.26
2018-08-22T04:32:16.673Z,21.29
2018-08-22T04:34:42.984Z,21.38
2018-08-22T04:37:09.290Z,21.44
2018-08-22T04:39:35.646Z,21.47
2018-08-22T04:42:02.003Z,21.45
2018-08-22T04:44:28.271Z,21.50
2018-08-22T04:46:54.584Z,21.50
2018-08-22T04:49:20.929Z,21.57
2018-08-22T04:51:47.247Z,21.53
2018-08-22T04:54:13.559Z,21.58
2018-08-22T04:56:39.872Z,21.57
2018-08-22T04:59:06.183Z,21.73
2018-08-22T05:01:32.498Z,21.89
2018-08-22T05:03:59.081Z,22.03
2018-08-22T05:06:25.394Z,22.08
2018-08-22T05:08:51.915Z,22.07
2018-08-22T05:11:18.062Z,22.08
2018-08-22T05:13:44.375Z,22.13
2018-08-22T05:16:10.681Z,22.07
2018-08-22T05:18:36.991Z,22.14
2018-08-22T05:21:03.348Z,22.23
2018-08-22T05:23:29.624Z,22.29
2018-08-22T05:25:55.945Z,22.39
2018-08-22T05:28:22.268Z,22.47
2018-08-22T05:30:48.586Z,22.52
2018-08-22T05:33:14.891Z,22.61
2018-08-22T05:35:41.208Z,22.64
2018-08-22T05:38:07.519Z,22.67
2018-08-22T05:40:33.897Z,22.70
2018-08-22T05:43:00.163Z,22.67
2018-08-22T05:45:26.477Z,22.82
2018-08-22T05:47:52.784Z,22.89
2018-08-22T05:50:19.107Z,22.94
2018-08-22T05:52:45.411Z,23.00
2018-08-22T05:55:11.730Z,23.03
2018-08-22T05:57:38.137Z,23.11
2018-08-22T06:00:04.475Z,23.18
2018-08-22T06:02:30.809Z,23.20
2018-08-22T06:04:57.159Z,23.28
2018-08-22T06:07:23.493Z,23.46
2018-08-22T06:09:49.808Z,23.53
2018-08-22T06:12:16.123Z,23.56
2018-08-22T06:14:42.466Z,23.64
2018-08-22T06:17:08.793Z,23.78
2018-08-22T06:19:35.111Z,23.97
2018-08-22T06:22:01.429Z,24.02
2018-08-22T06:24:27.751Z,23.81
2018-08-22T06:26:54.104Z,23.92
2018-08-22T06:29:20.426Z,24.20
2018-08-22T06:31:46.747Z,24.47
2018-08-22T06:34:13.058Z,24.62
2018-08-22T06:36:39.386Z,24.53
2018-08-22T06:39:05.712Z,24.41
2018-08-22T06:41:32.032Z,24.46
2018-08-22T06:43:58.345Z,24.44
2018-08-22T06:46:24.660Z,24.36
2018-08-22T06:48:50.985Z,24.39
2018-08-22T06:51:17.297Z,24.54
2018-08-22T06:53:43.627Z,24.76
2018-08-22T06:56:09.938Z,24.77
2018-08-22T06:58:36.254Z,24.87
2018-08-22T07:01:02.575Z,24.87
2018-08-22T07:03:28.901Z,24.98
2018-08-22T07:05:55.220Z,24.99
2018-08-22T07:08:21.616Z,24.97
2018-08-22T07:10:47.926Z,24.98
2018-08-22T07:13:14.493Z,24.86
2018-08-22T07:15:40.813Z,24.98
2018-08-22T07:18:07.116Z,25.24
2018-08-22T07:20:33.432Z,25.28
2018-08-22T07:22:59.760Z,25.27
2018-08-22T07:48:43.447Z,26.28
2018-08-22T07:51:09.788Z,26.39
2018-08-22T07:53:36.125Z,26.45
2018-08-22T07:56:02.447Z,26.53
2018-08-22T07:58:28.790Z,26.64
2018-08-22T08:00:55.112Z,26.81
2018-08-22T08:03:21.457Z,26.83
2018-08-22T08:05:47.782Z,26.82
2018-08-22T08:08:14.095Z,26.83
2018-08-22T08:10:40.434Z,26.86
2018-08-22T08:13:06.748Z,26.98
2018-08-22T08:15:33.078Z,27.07
2018-08-22T08:17:59.390Z,27.12
2018-08-22T08:20:25.757Z,27.33
2018-08-22T08:22:52.120Z,27.52
2018-08-22T08:25:18.481Z,27.31
2018-08-22T08:27:44.819Z,27.12
2018-08-22T08:30:11.167Z,26.93
2018-08-22T08:32:37.490Z,27.17
2018-08-22T08:35:03.801Z,27.30
2018-08-22T08:37:30.120Z,27.24
2018-08-22T08:39:56.439Z,27.41
2018-08-22T08:42:22.789Z,27.50
2018-08-22T08:44:49.090Z,27.73
2018-08-22T08:47:15.409Z,27.93
2018-08-22T08:49:41.833Z,28.04
2018-08-22T08:52:08.075Z,28.01
2018-08-22T08:54:34.396Z,28.12
2018-08-22T08:57:00.724Z,28.42
2018-08-22T08:59:27.059Z,28.60
2018-08-22T09:01:53.370Z,28.58
2018-08-22T09:04:19.705Z,28.56
2018-08-22T09:06:46.025Z,28.60
2018-08-22T09:09:12.384Z,28.57
2018-08-22T09:11:38.719Z,28.52
2018-08-22T09:14:06.014Z,28.43
2018-08-22T09:16:32.364Z,28.50
2018-08-22T09:18:58.715Z,28.55
2018-08-22T09:21:25.058Z,28.60
2018-08-22T09:23:51.337Z,28.61
2018-08-22T09:26:17.657Z,28.73
2018-08-22T09:28:43.978Z,28.70
2018-08-22T09:31:10.325Z,28.75
2018-08-22T09:33:36.660Z,28.73
2018-08-22T09:36:02.961Z,28.79
2018-08-22T09:38:29.279Z,28.88
2018-08-22T09:40:55.628Z,28.89
2018-08-22T09:43:22.004Z,28.92
2018-08-22T09:45:48.283Z,29.01
2018-08-22T09:48:14.614Z,29.12
2018-08-22T09:50:40.944Z,29.18
2018-08-22T09:53:07.224Z,29.17
2018-08-22T09:55:33.546Z,29.13
2018-08-22T09:57:59.902Z,29.16
2018-08-22T10:00:26.181Z,29.07
2018-08-22T10:02:52.512Z,29.23
2018-08-22T10:05:24.446Z,29.25
2018-08-22T10:07:50.702Z,29.28
2018-08-22T10:10:17.074Z,29.35
2018-08-22T10:12:43.360Z,29.34
2018-08-22T10:15:09.649Z,29.41
2018-08-22T10:17:35.975Z,29.38
2018-08-22T10:20:02.301Z,29.15
2018-08-22T10:22:28.634Z,29.00
2018-08-22T10:24:54.967Z,29.12
2018-08-22T10:27:21.302Z,29.39
2018-08-22T10:29:47.615Z,29.50
2018-08-22T10:32:13.959Z,29.48
2018-08-22T10:34:40.326Z,29.51
2018-08-22T10:37:06.660Z,29.64
2018-08-22T10:39:33.008Z,29.74
2018-08-22T10:41:59.312Z,29.88
2018-08-22T10:44:25.660Z,29.95
2018-08-22T10:46:51.951Z,30.04
2018-08-22T10:49:18.273Z,30.11
2018-08-22T10:51:44.593Z,30.21
2018-08-22T10:54:10.920Z,30.32
2018-08-22T10:56:37.285Z,30.41
2018-08-22T10:59:03.599Z,30.41
2018-08-22T11:01:29.935Z,30.41
2018-08-22T11:03:56.276Z,30.30
2018-08-22T11:06:22.583Z,30.28
2018-08-22T11:08:48.906Z,30.31
2018-08-22T11:11:15.234Z,30.34
2018-08-22T11:13:41.595Z,30.47
2018-08-22T11:16:07.940Z,30.47
2018-08-22T11:18:34.239Z,30.34
2018-08-22T11:21:00.568Z,30.17
2018-08-22T11:23:26.924Z,30.15
2018-08-22T11:25:53.284Z,30.13
2018-08-22T11:28:19.611Z,30.19
2018-08-22T11:30:45.978Z,30.29
2018-08-22T11:33:12.333Z,30.38
2018-08-22T11:35:38.648Z,30.44
2018-08-22T11:38:04.979Z,30.39
2018-08-22T11:40:31.323Z,30.41
2018-08-22T11:42:57.652Z,30.46
2018-08-22T11:45:23.972Z,30.47
2018-08-22T11:47:50.287Z,30.40
2018-08-22T11:50:16.597Z,30.39
2018-08-22T11:52:42.955Z,30.39
2018-08-22T11:55:09.273Z,30.40
2018-08-22T11:57:35.588Z,30.45
2018-08-22T12:00:01.942Z,30.45
2018-08-22T12:02:28.267Z,30.55
2018-08-22T12:04:54.587Z,30.60
2018-08-22T12:07:20.944Z,30.61
2018-08-22T12:09:47.259Z,30.56
2018-08-22T12:12:13.596Z,30.57
2018-08-22T12:14:39.915Z,30.60
2018-08-22T12:17:06.236Z,30.59
2018-08-22T12:19:32.559Z,30.58
2018-08-22T12:22:06.036Z,30.54
2018-08-22T12:24:26.141Z,30.57
2018-08-22T12:26:55.109Z,30.55
2018-08-22T12:29:19.613Z,30.50
2018-08-22T12:31:45.937Z,30.38
2018-08-22T12:34:12.271Z,30.24
2018-08-22T12:36:38.588Z,30.16
2018-08-22T12:39:04.918Z,30.12
2018-08-22T12:41:31.442Z,30.01
2018-08-22T12:44:05.526Z,29.95
2018-08-22T12:46:26.194Z,29.94
2018-08-22T12:48:52.515Z,29.98
2018-08-22T12:51:18.859Z,30.00
2018-08-22T12:53:45.236Z,29.88
2018-08-22T12:56:11.552Z,29.79
2018-08-22T12:58:37.855Z,29.84
2018-08-22T13:01:04.173Z,29.89
2018-08-22T13:03:30.496Z,29.94
2018-08-22T13:05:56.811Z,29.98
2018-08-22T13:08:23.123Z,30.02
2018-08-22T13:10:49.445Z,30.06
2018-08-22T13:16:01.287Z,30.22
2018-08-22T13:18:27.614Z,30.29
2018-08-22T13:20:53.948Z,30.29
2018-08-22T13:23:20.287Z,30.25
2018-08-22T13:25:49.574Z,30.16
2018-08-22T13:28:15.845Z,30.09
2018-08-22T13:30:42.172Z,30.05
2018-08-22T13:33:08.499Z,30.00
2018-08-22T13:35:34.831Z,29.99
2018-08-22T13:38:01.139Z,29.95
2018-08-22T13:40:31.628Z,29.93
2018-08-22T13:42:55.429Z,29.89
2018-08-22T13:45:21.741Z,29.88
2018-08-22T13:47:48.067Z,29.85
2018-08-22T13:50:14.400Z,29.85
2018-08-22T13:52:40.751Z,29.87
2018-08-22T13:55:07.077Z,29.84
2018-08-22T13:57:35.544Z,29.80
2018-08-22T14:00:00.735Z,29.79
2018-08-22T14:02:27.025Z,29.82
2018-08-22T14:04:54.546Z,29.79
2018-08-22T14:07:20.802Z,29.78
2018-08-22T14:09:47.141Z,29.78
2018-08-22T14:12:13.450Z,29.77
2018-08-22T14:14:42.556Z,29.74
2018-08-22T14:17:08.891Z,29.70
2018-08-22T14:19:35.218Z,29.67
2018-08-22T14:22:01.576Z,29.70
2018-08-22T14:24:27.867Z,29.70
2018-08-22T14:26:54.191Z,29.67
2018-08-22T14:29:20.529Z,29.66
2018-08-22T14:31:46.842Z,29.68
2018-08-22T14:34:13.198Z,29.68
2018-08-22T14:36:39.551Z,29.70
2018-08-22T14:39:05.869Z,29.72
2018-08-22T14:41:32.545Z,29.71
2018-08-22T14:43:58.837Z,29.68
2018-08-22T14:46:25.149Z,29.66
2018-08-22T14:48:51.466Z,29.65
2018-08-22T14:51:17.817Z,29.63
2018-08-22T14:53:44.142Z,29.58
2018-08-22T14:56:10.503Z,29.55
2018-08-22T14:58:36.799Z,29.53
2018-08-22T15:01:03.137Z,29.52
2018-08-22T15:03:29.632Z,29.51
2018-08-22T15:05:55.784Z,29.45
2018-08-22T15:08:22.122Z,29.40
2018-08-22T15:10:48.450Z,29.38
2018-08-22T15:13:14.776Z,29.34
2018-08-22T15:15:41.131Z,29.32
2018-08-22T15:18:07.438Z,29.31
2018-08-22T15:20:33.758Z,29.21
2018-08-22T15:23:00.131Z,29.20
2018-08-22T15:25:26.495Z,29.23
2018-08-22T15:27:52.817Z,29.21
2018-08-22T15:30:19.184Z,29.18
2018-08-22T15:32:45.499Z,29.17
2018-08-22T15:35:11.832Z,29.14
2018-08-22T15:37:38.164Z,29.18
2018-08-22T15:40:04.491Z,29.24
2018-08-22T15:42:30.829Z,29.26
2018-08-22T15:45:01.035Z,29.28
2018-08-22T15:47:24.507Z,29.30
2018-08-22T15:49:50.747Z,29.27
2018-08-22T15:52:17.132Z,29.25
2018-08-22T15:54:43.436Z,29.19
2018-08-22T15:57:09.780Z,29.17
2018-08-22T15:59:36.137Z,29.16
2018-08-22T16:02:02.495Z,29.10
2018-08-22T16:04:28.825Z,29.10
2018-08-22T16:06:55.145Z,29.08
2018-08-22T16:09:21.463Z,29.08
2018-08-22T16:11:47.805Z,29.10
2018-08-22T16:14:14.133Z,29.12
2018-08-22T16:16:40.465Z,29.10
2018-08-22T16:19:06.801Z,29.08
2018-08-22T16:21:33.166Z,29.03
2018-08-22T16:23:59.516Z,28.99
2018-08-22T16:26:25.850Z,29.03
2018-08-22T16:28:52.194Z,29.02
2018-08-22T16:31:18.567Z,28.90
2018-08-22T16:33:44.849Z,28.92
2018-08-22T16:36:11.176Z,28.92
2018-08-22T16:38:37.496Z,28.91
2018-08-22T16:41:03.832Z,28.91
2018-08-22T16:43:30.148Z,28.88
2018-08-22T16:45:56.499Z,28.88
2018-08-22T16:48:22.832Z,28.87
2018-08-22T16:50:49.159Z,28.88
2018-08-22T16:53:15.510Z,28.86
2018-08-22T16:55:41.937Z,28.80
2018-08-22T16:58:08.267Z,28.75
2018-08-22T17:00:34.645Z,28.71
2018-08-22T17:03:00.980Z,28.67
2018-08-22T17:05:27.323Z,28.65
2018-08-22T17:07:53.721Z,28.63
2018-08-22T17:10:19.993Z,28.57
2018-08-22T17:12:46.335Z,28.55
2018-08-22T17:15:12.700Z,28.50
2018-08-22T17:17:39.014Z,28.50
2018-08-22T17:20:05.331Z,28.48
2018-08-22T17:22:31.649Z,28.48
2018-08-22T17:24:57.982Z,28.45
2018-08-22T17:27:24.354Z,28.44
2018-08-22T17:29:50.674Z,28.41
2018-08-22T17:32:16.999Z,28.36
2018-08-22T17:34:43.330Z,28.32
2018-08-22T17:37:09.648Z,28.27
2018-08-22T17:39:35.969Z,28.21
2018-08-22T17:42:02.292Z,28.14
2018-08-22T17:44:28.637Z,28.09
2018-08-22T17:46:54.956Z,28.06
2018-08-22T17:49:21.322Z,28.01
2018-08-22T17:51:47.659Z,27.90
2018-08-22T17:54:14.024Z,27.85
2018-08-22T17:56:40.324Z,27.77
2018-08-22T17:59:06.632Z,27.71
2018-08-22T18:01:33.197Z,27.60
2018-08-22T18:03:59.520Z,27.60
2018-08-22T18:06:26.038Z,27.62
2018-08-22T18:08:52.280Z,27.54
2018-08-22T18:11:18.589Z,27.52
2018-08-22T18:13:44.995Z,27.55
2018-08-22T18:16:11.323Z,27.57
2018-08-22T18:18:37.742Z,27.61
2018-08-22T18:21:04.091Z,27.61
2018-08-22T18:23:30.423Z,27.55
2018-08-22T18:25:56.757Z,27.45
2018-08-22T18:28:23.111Z,27.49
2018-08-22T18:30:49.461Z,27.51
2018-08-22T18:33:15.791Z,27.46
2018-08-22T18:35:42.111Z,27.42
2018-08-22T18:38:08.459Z,27.42
2018-08-22T18:40:34.799Z,27.43
2018-08-22T18:43:01.134Z,27.42
2018-08-22T18:45:27.442Z,27.39
2018-08-22T18:47:53.822Z,27.19
2018-08-22T18:50:20.123Z,27.15
2018-08-22T18:52:46.497Z,27.15
2018-08-22T18:55:12.857Z,27.15
2018-08-22T18:57:39.173Z,27.12
2018-08-22T19:00:05.515Z,27.14
2018-08-22T19:02:31.848Z,27.19
2018-08-22T19:04:58.190Z,27.24
2018-08-22T19:07:24.504Z,27.15
2018-08-22T19:09:50.815Z,27.03
2018-08-22T19:12:17.142Z,26.98
2018-08-22T19:14:43.458Z,26.97
2018-08-22T19:17:09.781Z,26.90
2018-08-22T19:19:36.109Z,26.90
2018-08-22T19:22:02.494Z,26.89
2018-08-22T19:24:28.810Z,26.88
2018-08-22T19:26:55.194Z,26.90
2018-08-22T19:29:21.526Z,26.84
2018-08-22T19:31:47.858Z,26.80
2018-08-22T19:34:14.177Z,26.75
2018-08-22T19:36:40.497Z,26.71
2018-08-22T19:39:06.867Z,26.71
2018-08-22T19:41:33.240Z,26.67
2018-08-22T19:43:59.584Z,26.63
2018-08-22T19:46:25.901Z,26.64
2018-08-22T19:48:52.273Z,26.70
2018-08-22T19:51:18.597Z,26.70
2018-08-22T19:53:44.919Z,26.68
2018-08-22T19:56:11.273Z,26.61
2018-08-22T19:58:37.579Z,26.61
2018-08-22T20:01:03.892Z,26.65
2018-08-22T20:03:30.221Z,26.57
2018-08-22T20:05:56.552Z,26.53
2018-08-22T20:08:22.877Z,26.50
2018-08-22T20:10:49.215Z,26.46
2018-08-22T20:13:15.534Z,26.43
2018-08-22T20:15:41.876Z,26.41
2018-08-22T20:18:08.195Z,26.35
2018-08-22T20:20:34.559Z,26.30
2018-08-22T20:23:00.918Z,26.30
2018-08-22T20:25:27.195Z,26.36
2018-08-22T20:27:53.522Z,26.28
2018-08-22T20:30:19.863Z,26.20
2018-08-22T20:32:46.187Z,26.04
2018-08-22T20:35:12.467Z,26.07
2018-08-22T20:37:38.804Z,26.02
2018-08-22T20:40:05.122Z,26.02
2018-08-22T20:42:31.560Z,26.02
2018-08-22T20:44:57.861Z,26.03
2018-08-22T20:47:24.187Z,26.05
2018-08-22T20:49:50.520Z,26.01
2018-08-22T20:52:16.854Z,26.03
2018-08-22T20:54:43.218Z,26.08
2018-08-22T20:57:09.526Z,26.08
2018-08-22T20:59:35.926Z,26.14
2018-08-22T21:02:02.313Z,26.11
2018-08-22T21:04:28.598Z,26.06
2018-08-22T21:06:54.934Z,26.02
2018-08-22T21:09:21.244Z,25.89
2018-08-22T21:11:47.592Z,25.76
2018-08-22T21:14:13.938Z,25.61
2018-08-22T21:16:40.258Z,25.29
2018-08-22T21:19:06.583Z,25.02
2018-08-22T21:21:32.906Z,25.01
2018-08-22T21:23:59.214Z,24.93
2018-08-22T21:26:25.522Z,24.95
2018-08-22T21:28:51.839Z,25.05
2018-08-22T21:31:18.174Z,24.96
2018-08-22T21:33:44.494Z,24.81
2018-08-22T21:36:10.820Z,24.82
2018-08-22T21:38:37.132Z,24.81
2018-08-22T21:41:03.444Z,24.84
2018-08-22T21:43:29.784Z,24.92
2018-08-22T21:45:56.099Z,25.07
2018-08-22T21:48:22.412Z,25.11
2018-08-22T21:50:48.731Z,25.10
2018-08-22T21:53:15.049Z,24.98
2018-08-22T21:55:41.360Z,24.95
2018-08-22T21:58:07.671Z,24.97
2018-08-22T22:00:34.024Z,24.98
2018-08-22T22:03:00.358Z,24.94
2018-08-22T22:05:26.717Z,24.94
2018-08-22T22:07:53.127Z,24.89
2018-08-22T22:10:19.438Z,24.66
2018-08-22T22:12:45.753Z,24.35
2018-08-22T22:15:12.109Z,24.34
2018-08-22T22:17:38.417Z,24.33
2018-08-22T22:20:04.743Z,24.45
2018-08-22T22:22:31.047Z,24.60
2018-08-22T22:24:57.394Z,24.60
2018-08-22T22:27:23.708Z,24.58
2018-08-22T22:29:50.037Z,24.37
2018-08-22T22:32:16.392Z,24.22
2018-08-22T22:34:42.704Z,24.22
2018-08-22T22:37:09.026Z,24.33
2018-08-22T22:39:35.404Z,24.42
2018-08-22T22:42:01.733Z,24.49
2018-08-22T22:44:28.056Z,24.51
2018-08-22T22:46:54.384Z,24.53
2018-08-22T22:49:20.704Z,24.49
2018-08-22T22:51:47.027Z,24.48
2018-08-22T22:54:13.351Z,24.45
2018-08-22T22:56:39.685Z,24.42
2018-08-22T22:59:06.012Z,24.39
2018-08-22T23:01:32.420Z,24.34
2018-08-22T23:03:58.801Z,24.13
2018-08-22T23:06:25.108Z,23.98
2018-08-22T23:08:51.436Z,23.91
2018-08-22T23:11:17.767Z,24.05
2018-08-22T23:13:44.108Z,24.08
2018-08-22T23:16:10.411Z,24.06
2018-08-22T23:18:36.820Z,24.00
2018-08-22T23:21:03.039Z,23.84
2018-08-22T23:23:30.249Z,23.84
2018-08-22T23:25:56.585Z,24.01
2018-08-22T23:28:23.037Z,24.07
2018-08-22T23:30:49.360Z,23.95
2018-08-22T23:33:15.690Z,23.74
2018-08-22T23:35:42.011Z,23.67
2018-08-22T23:38:08.360Z,23.82
2018-08-22T23:40:34.697Z,23.88
2018-08-22T23:43:01.072Z,23.83
2018-08-22T23:45:27.349Z,23.86
2018-08-22T23:47:53.672Z,23.94
2018-08-22T23:50:19.982Z,23.98
2018-08-22T23:52:46.297Z,23.94
2018-08-22T23:55:12.620Z,23.83
2018-08-22T23:57:38.939Z,23.90
